Quinsam — VY6800 — position and weather

sailwx.info

Track history (hours):
 
Tides and Currents Weather Stations Pressure Air Temp Water Temp Dewpoint Dewpoint Depression Visibility Wind Speed Wind Dir Waves Ship Positions

Quinsam

Last reported at 2017-Jan-20 05:33 UTC. Time now 2017-Jan-20 05:53 UTC.
Position N 49°11' W 123°52'.

Length 88 m; draft 1.5 m.

Type: Ship. MMSI: 316001266.

Date/timePositionNaut miles runAvg speedWind from/ knotsBaromVisibWave heightAir tempDewpointWater temp
2017-Jan-20 05:33N 49°11' W 123°52'1 0.7
2017-Jan-20 04:33N 49°11' W 123°53'1 0.5
2017-Jan-20 03:32N 49°11' W 123°52'1 0.6
2017-Jan-20 02:33N 49°11' W 123°52'0 0.0
2017-Jan-20 01:33N 49°11' W 123°52'1 1.4
2017-Jan-20 00:33N 49°10' W 123°54'1 1.5
2017-Jan-19 23:33N 49°10' W 123°56'1 1.3
2017-Jan-19 22:33N 49°10' W 123°54'2 1.6
2017-Jan-19 21:32N 49°11' W 123°52'0 0.0
2017-Jan-19 20:32N 49°11' W 123°52'2 1.9
2017-Jan-19 19:33N 49°10' W 123°54'1 1.0
2017-Jan-19 18:33N 49°10' W 123°56'1 0.8
2017-Jan-19 17:33N 49°10' W 123°55'2 2.0
2017-Jan-19 16:33N 49°11' W 123°52'0 0.0
2017-Jan-19 15:30N 49°11' W 123°52'2 2.6
2017-Jan-19 14:33N 49°10' W 123°55'2 2.2
2017-Jan-19 13:27N 49°11' W 123°52'0 0.0
2017-Jan-19 12:15N 49°11' W 123°52'0 0.0
2017-Jan-19 11:15N 49°11' W 123°52'0 0.0
2017-Jan-19 09:15N 49°11' W 123°52'0 0.0
2017-Jan-19 08:33N 49°11' W 123°52'0 0.0
2017-Jan-19 07:22N 49°11' W 123°52'3 3.6
2017-Jan-19 06:34N 49°10' W 123°56'2 2.3
2017-Jan-19 05:33N 49°11' W 123°52'0 0.4
2017-Jan-19 04:33N 49°11' W 123°53'1 0.7
2017-Jan-19 03:33N 49°11' W 123°52'0 0.3
2017-Jan-19 02:33N 49°11' W 123°52'0 0.0
2017-Jan-19 01:33N 49°11' W 123°52'2 1.8
2017-Jan-19 00:33N 49°10' W 123°54'1 1.1
2017-Jan-18 23:34N 49°10' W 123°56'2 1.6
2017-Jan-18 22:33N 49°10' W 123°53'1 1.2
2017-Jan-18 21:33N 49°11' W 123°52'0 0.1
2017-Jan-18 20:33N 49°11' W 123°52'2 1.9
2017-Jan-18 19:33N 49°10' W 123°54'1 1.0
2017-Jan-18 18:33N 49°10' W 123°56'0 0.1
2017-Jan-18 17:34N 49°10' W 123°56'3 2.6
2017-Jan-18 16:33N 49°11' W 123°52'0 0.2
2017-Jan-18 15:30N 49°11' W 123°52'2 2.2
2017-Jan-18 14:33N 49°10' W 123°55'2 1.7
2017-Jan-18 13:19N 49°11' W 123°52'0 0.0
2017-Jan-18 12:04N 49°11' W 123°52'0 0.0
2017-Jan-18 11:22N 49°11' W 123°52'0 0.0
2017-Jan-18 10:25N 49°11' W 123°52'0 0.0
2017-Jan-18 07:25N 49°11' W 123°52'0 0.5
2017-Jan-18 06:33N 49°11' W 123°52'0 0.0
2017-Jan-18 05:33N 49°11' W 123°52'1 0.6
2017-Jan-18 04:33N 49°11' W 123°53'1 0.8
2017-Jan-18 03:34N 49°11' W 123°52'0 0.3
2017-Jan-18 02:33N 49°11' W 123°52'0 0.0
2017-Jan-18 01:34N 49°11' W 123°52'2 1.8
2017-Jan-18 00:33N 49°10' W 123°54'1 1.1
2017-Jan-17 23:33N 49°10' W 123°56'1 1.2
2017-Jan-17 22:33N 49°10' W 123°54'2 1.7
2017-Jan-17 21:33N 49°11' W 123°52'0 0.0
2017-Jan-17 20:33N 49°11' W 123°52'2 2.4
2017-Jan-17 19:34N 49°10' W 123°55'0 0.5
2017-Jan-17 18:32N 49°10' W 123°56'1 0.7
2017-Jan-17 17:34N 49°10' W 123°55'2 2.1
2017-Jan-17 16:31N 49°11' W 123°52'0 0.1
2017-Jan-17 15:33N 49°11' W 123°52'2 2.2
2017-Jan-17 14:33N 49°10' W 123°55'2 1.7
2017-Jan-17 13:13N 49°11' W 123°52'0 0.0
2017-Jan-17 09:28N 49°11' W 123°52'0 0.0
2017-Jan-17 08:04N 49°11' W 123°52'0 0.0
2017-Jan-17 07:24N 49°11' W 123°52'1 0.7
2017-Jan-17 06:33N 49°11' W 123°52'0 0.5
2017-Jan-17 05:31N 49°11' W 123°52'1 1.0
2017-Jan-17 04:34N 49°11' W 123°53'1 0.7
2017-Jan-17 03:33N 49°11' W 123°52'0 0.3
2017-Jan-17 02:32N 49°11' W 123°52'0 0.0
2017-Jan-17 01:33N 49°11' W 123°52'2 2.0
2017-Jan-17 00:33N 49°10' W 123°54'1 0.9
2017-Jan-16 23:33N 49°10' W 123°56'1 1.2
2017-Jan-16 22:33N 49°10' W 123°54'2 1.7
2017-Jan-16 21:33N 49°11' W 123°52'0 0.0
2017-Jan-16 20:33N 49°11' W 123°52'2 2.3
2017-Jan-16 19:33N 49°10' W 123°55'1 0.6
2017-Jan-16 18:34N 49°10' W 123°56'1 0.3
2017-Jan-16 16:16N 49°10' W 123°55'2 3.0
2017-Jan-16 15:34N 49°11' W 123°52'  
2017-Jan-13 15:08N 49°11' W 123°53'2 0.1
2017-Jan-12 23:31N 49°10' W 123°56'1 0.9
2017-Jan-12 22:33N 49°10' W 123°55'2 2.0
2017-Jan-12 21:33N 49°11' W 123°52'0 0.0
2017-Jan-12 20:34N 49°11' W 123°52'2 2.3
2017-Jan-12 19:33N 49°10' W 123°55'1 0.6
2017-Jan-12 18:30N 49°10' W 123°56'1 0.8
2017-Jan-12 17:33N 49°10' W 123°55'2 2.1
2017-Jan-12 16:33N 49°11' W 123°52'0 0.0
2017-Jan-12 15:33N 49°11' W 123°52'2 2.4
2017-Jan-12 14:33N 49°10' W 123°55'2 2.2
2017-Jan-12 13:29N 49°11' W 123°52'0 0.0
2017-Jan-12 12:32N 49°11' W 123°52'0 0.0
2017-Jan-12 11:32N 49°11' W 123°52'0 0.0
2017-Jan-12 10:32N 49°11' W 123°52'0 0.0
2017-Jan-12 09:32N 49°11' W 123°52'0 0.0
2017-Jan-12 08:32N 49°11' W 123°52'0 0.0
2017-Jan-12 07:32N 49°11' W 123°52'3 2.7
2017-Jan-12 06:27N 49°10' W 123°56'3 2.8
2017-Jan-12 05:33N 49°11' W 123°52'1 0.7
2017-Jan-12 04:33N 49°10' W 123°53'1 0.8
2017-Jan-12 03:31N 49°11' W 123°52'0 0.2
2017-Jan-12 02:30N 49°11' W 123°52'0 0.0
2017-Jan-12 01:32N 49°11' W 123°52'0 0.4
2017-Jan-12 00:31N 49°11' W 123°52'3 2.3
2017-Jan-11 23:25N 49°10' W 123°56'0 0.3
2017-Jan-11 22:28N 49°10' W 123°55'3 2.8
2017-Jan-11 21:33N 49°11' W 123°52'0 0.0
2017-Jan-11 20:30N 49°11' W 123°52'2 2.2
2017-Jan-11 19:32N 49°10' W 123°55'1 0.7
2017-Jan-11 18:28N 49°10' W 123°56'1 1.3
2017-Jan-11 17:32N 49°10' W 123°54'1 1.4
2017-Jan-11 16:33N 49°11' W 123°52'0 0.4
2017-Jan-11 15:33N 49°11' W 123°52'2 2.1
2017-Jan-11 14:33N 49°10' W 123°55'2 0.3
2017-Jan-11 07:21N 49°11' W 123°52'0 0.2
2017-Jan-11 06:30N 49°11' W 123°52'1 0.5
2017-Jan-11 05:33N 49°11' W 123°53'0 0.3
2017-Jan-11 04:31N 49°11' W 123°53'1 0.9
2017-Jan-11 03:33N 49°11' W 123°52'0 0.0
2017-Jan-11 02:32N 49°11' W 123°52'0 0.0
2017-Jan-11 01:34N 49°11' W 123°52'2 1.8
2017-Jan-11 00:33N 49°10' W 123°54'1 1.1
2017-Jan-10 23:33N 49°10' W 123°56'1 1.0
2017-Jan-10 22:31N 49°10' W 123°54'2 1.8
2017-Jan-10 21:33N 49°11' W 123°52'0 0.2
2017-Jan-10 20:33N 49°11' W 123°52'2 2.1
2017-Jan-10 19:32N 49°10' W 123°55'1 0.7
2017-Jan-10 18:23N 49°10' W 123°56'1 1.4
2017-Jan-10 17:32N 49°10' W 123°54'2 1.7
2017-Jan-10 16:32N 49°11' W 123°52'0 0.0
2017-Jan-10 15:33N 49°11' W 123°52'2 1.9
2017-Jan-10 14:33N 49°10' W 123°54'2 0.3
2017-Jan-10 07:19N 49°11' W 123°52'1 0.8
2017-Jan-10 06:33N 49°11' W 123°52'  
Track history (hours):
 
Tides and Currents Weather Stations Pressure Air Temp Water Temp Dewpoint Dewpoint Depression Visibility Wind Speed Wind Dir Waves Ship Positions

Quinsam

Last reported at 2017-Jan-20 05:33 UTC. Time now 2017-Jan-20 05:53 UTC.
Position N 49°11' W 123°52'.

Length 88 m; draft 1.5 m.

Type: Ship. MMSI: 316001266.

Date/timePositionNaut miles runAvg speedWind from/ knotsBaromVisibWave heightAir tempDewpointWater temp
2017-Jan-20 05:33N 49°11' W 123°52'1 0.7
2017-Jan-20 04:33N 49°11' W 123°53'1 0.5
2017-Jan-20 03:32N 49°11' W 123°52'1 0.6
2017-Jan-20 02:33N 49°11' W 123°52'0 0.0
2017-Jan-20 01:33N 49°11' W 123°52'1 1.4
2017-Jan-20 00:33N 49°10' W 123°54'1 1.5
2017-Jan-19 23:33N 49°10' W 123°56'1 1.3
2017-Jan-19 22:33N 49°10' W 123°54'2 1.6
2017-Jan-19 21:32N 49°11' W 123°52'0 0.0
2017-Jan-19 20:32N 49°11' W 123°52'2 1.9
2017-Jan-19 19:33N 49°10' W 123°54'1 1.0
2017-Jan-19 18:33N 49°10' W 123°56'1 0.8
2017-Jan-19 17:33N 49°10' W 123°55'2 2.0
2017-Jan-19 16:33N 49°11' W 123°52'0 0.0
2017-Jan-19 15:30N 49°11' W 123°52'2 2.6
2017-Jan-19 14:33N 49°10' W 123°55'2 2.2
2017-Jan-19 13:27N 49°11' W 123°52'0 0.0
2017-Jan-19 12:15N 49°11' W 123°52'0 0.0
2017-Jan-19 11:15N 49°11' W 123°52'0 0.0
2017-Jan-19 09:15N 49°11' W 123°52'0 0.0
2017-Jan-19 08:33N 49°11' W 123°52'0 0.0
2017-Jan-19 07:22N 49°11' W 123°52'3 3.6
2017-Jan-19 06:34N 49°10' W 123°56'2 2.3
2017-Jan-19 05:33N 49°11' W 123°52'0 0.4
2017-Jan-19 04:33N 49°11' W 123°53'1 0.7
2017-Jan-19 03:33N 49°11' W 123°52'0 0.3
2017-Jan-19 02:33N 49°11' W 123°52'0 0.0
2017-Jan-19 01:33N 49°11' W 123°52'2 1.8
2017-Jan-19 00:33N 49°10' W 123°54'1 1.1
2017-Jan-18 23:34N 49°10' W 123°56'2 1.6
2017-Jan-18 22:33N 49°10' W 123°53'1 1.2
2017-Jan-18 21:33N 49°11' W 123°52'0 0.1
2017-Jan-18 20:33N 49°11' W 123°52'2 1.9
2017-Jan-18 19:33N 49°10' W 123°54'1 1.0
2017-Jan-18 18:33N 49°10' W 123°56'0 0.1
2017-Jan-18 17:34N 49°10' W 123°56'3 2.6
2017-Jan-18 16:33N 49°11' W 123°52'0 0.2
2017-Jan-18 15:30N 49°11' W 123°52'2 2.2
2017-Jan-18 14:33N 49°10' W 123°55'2 1.7
2017-Jan-18 13:19N 49°11' W 123°52'0 0.0
2017-Jan-18 12:04N 49°11' W 123°52'0 0.0
2017-Jan-18 11:22N 49°11' W 123°52'0 0.0
2017-Jan-18 10:25N 49°11' W 123°52'0 0.0
2017-Jan-18 07:25N 49°11' W 123°52'0 0.5
2017-Jan-18 06:33N 49°11' W 123°52'0 0.0
2017-Jan-18 05:33N 49°11' W 123°52'1 0.6
2017-Jan-18 04:33N 49°11' W 123°53'1 0.8
2017-Jan-18 03:34N 49°11' W 123°52'0 0.3
2017-Jan-18 02:33N 49°11' W 123°52'0 0.0
2017-Jan-18 01:34N 49°11' W 123°52'2 1.8
2017-Jan-18 00:33N 49°10' W 123°54'1 1.1
2017-Jan-17 23:33N 49°10' W 123°56'1 1.2
2017-Jan-17 22:33N 49°10' W 123°54'2 1.7
2017-Jan-17 21:33N 49°11' W 123°52'0 0.0
2017-Jan-17 20:33N 49°11' W 123°52'2 2.4
2017-Jan-17 19:34N 49°10' W 123°55'0 0.5
2017-Jan-17 18:32N 49°10' W 123°56'1 0.7
2017-Jan-17 17:34N 49°10' W 123°55'2 2.1
2017-Jan-17 16:31N 49°11' W 123°52'0 0.1
2017-Jan-17 15:33N 49°11' W 123°52'2 2.2
2017-Jan-17 14:33N 49°10' W 123°55'2 1.7
2017-Jan-17 13:13N 49°11' W 123°52'0 0.0
2017-Jan-17 09:28N 49°11' W 123°52'0 0.0
2017-Jan-17 08:04N 49°11' W 123°52'0 0.0
2017-Jan-17 07:24N 49°11' W 123°52'1 0.7
2017-Jan-17 06:33N 49°11' W 123°52'0 0.5
2017-Jan-17 05:31N 49°11' W 123°52'1 1.0
2017-Jan-17 04:34N 49°11' W 123°53'1 0.7
2017-Jan-17 03:33N 49°11' W 123°52'0 0.3
2017-Jan-17 02:32N 49°11' W 123°52'0 0.0
2017-Jan-17 01:33N 49°11' W 123°52'2 2.0
2017-Jan-17 00:33N 49°10' W 123°54'1 0.9
2017-Jan-16 23:33N 49°10' W 123°56'1 1.2
2017-Jan-16 22:33N 49°10' W 123°54'2 1.7
2017-Jan-16 21:33N 49°11' W 123°52'0 0.0
2017-Jan-16 20:33N 49°11' W 123°52'2 2.3
2017-Jan-16 19:33N 49°10' W 123°55'1 0.6
2017-Jan-16 18:34N 49°10' W 123°56'1 0.3
2017-Jan-16 16:16N 49°10' W 123°55'2 3.0
2017-Jan-16 15:34N 49°11' W 123°52'  
2017-Jan-13 15:08N 49°11' W 123°53'2 0.1
2017-Jan-12 23:31N 49°10' W 123°56'1 0.9
2017-Jan-12 22:33N 49°10' W 123°55'2 2.0
2017-Jan-12 21:33N 49°11' W 123°52'0 0.0
2017-Jan-12 20:34N 49°11' W 123°52'2 2.3
2017-Jan-12 19:33N 49°10' W 123°55'1 0.6
2017-Jan-12 18:30N 49°10' W 123°56'1 0.8
2017-Jan-12 17:33N 49°10' W 123°55'2 2.1
2017-Jan-12 16:33N 49°11' W 123°52'0 0.0
2017-Jan-12 15:33N 49°11' W 123°52'2 2.4
2017-Jan-12 14:33N 49°10' W 123°55'2 2.2
2017-Jan-12 13:29N 49°11' W 123°52'0 0.0
2017-Jan-12 12:32N 49°11' W 123°52'0 0.0
2017-Jan-12 11:32N 49°11' W 123°52'0 0.0
2017-Jan-12 10:32N 49°11' W 123°52'0 0.0
2017-Jan-12 09:32N 49°11' W 123°52'0 0.0
2017-Jan-12 08:32N 49°11' W 123°52'0 0.0
2017-Jan-12 07:32N 49°11' W 123°52'3 2.7
2017-Jan-12 06:27N 49°10' W 123°56'3 2.8
2017-Jan-12 05:33N 49°11' W 123°52'1 0.7
2017-Jan-12 04:33N 49°10' W 123°53'1 0.8
2017-Jan-12 03:31N 49°11' W 123°52'0 0.2
2017-Jan-12 02:30N 49°11' W 123°52'0 0.0
2017-Jan-12 01:32N 49°11' W 123°52'0 0.4
2017-Jan-12 00:31N 49°11' W 123°52'3 2.3
2017-Jan-11 23:25N 49°10' W 123°56'0 0.3
2017-Jan-11 22:28N 49°10' W 123°55'3 2.8
2017-Jan-11 21:33N 49°11' W 123°52'0 0.0
2017-Jan-11 20:30N 49°11' W 123°52'2 2.2
2017-Jan-11 19:32N 49°10' W 123°55'1 0.7
2017-Jan-11 18:28N 49°10' W 123°56'1 1.3
2017-Jan-11 17:32N 49°10' W 123°54'1 1.4
2017-Jan-11 16:33N 49°11' W 123°52'0 0.4
2017-Jan-11 15:33N 49°11' W 123°52'2 2.1
2017-Jan-11 14:33N 49°10' W 123°55'2 0.3
2017-Jan-11 07:21N 49°11' W 123°52'0 0.2
2017-Jan-11 06:30N 49°11' W 123°52'1 0.5
2017-Jan-11 05:33N 49°11' W 123°53'0 0.3
2017-Jan-11 04:31N 49°11' W 123°53'1 0.9
2017-Jan-11 03:33N 49°11' W 123°52'0 0.0
2017-Jan-11 02:32N 49°11' W 123°52'0 0.0
2017-Jan-11 01:34N 49°11' W 123°52'2 1.8
2017-Jan-11 00:33N 49°10' W 123°54'1 1.1
2017-Jan-10 23:33N 49°10' W 123°56'1 1.0
2017-Jan-10 22:31N 49°10' W 123°54'2 1.8
2017-Jan-10 21:33N 49°11' W 123°52'0 0.2
2017-Jan-10 20:33N 49°11' W 123°52'2 2.1
2017-Jan-10 19:32N 49°10' W 123°55'1 0.7
2017-Jan-10 18:23N 49°10' W 123°56'1 1.4
2017-Jan-10 17:32N 49°10' W 123°54'2 1.7
2017-Jan-10 16:32N 49°11' W 123°52'0 0.0
2017-Jan-10 15:33N 49°11' W 123°52'2 1.9
2017-Jan-10 14:33N 49°10' W 123°54'2 0.3
2017-Jan-10 07:19N 49°11' W 123°52'1 0.8
2017-Jan-10 06:33N 49°11' W 123°52'  

Dump ship's entire track history